Time;durP1;ratioP1;P1;durP2;ratioP2;P2;SDS_P1;SDS_P2;PMS_P1;PMS_P2;Temp;Humidity;BMP_temperature;BMP_pressure;BME280_temperature;BME280_humidity;BME280_pressure;Samples;Min_cycle;Max_cycle;Signal;HPM_P1;HPM_P2
2021/03/27 00:00:52;;;;;;;7.47;6.20;;;9.70;99.90;;;;;;5010115;28;20473;-69
2021/03/27 00:03:39;;;;;;;8.63;6.50;;;9.70;99.90;;;;;;5010186;28;20201;-69
2021/03/27 00:06:45;;;;;;;12.00;6.20;;;9.80;99.90;;;;;;5010182;28;20419;-68
2021/03/27 00:09:39;;;;;;;8.57;6.20;;;10.00;99.90;;;;;;5010662;28;20172;-66
2021/03/27 00:12:04;;;;;;;9.70;6.77;;;9.90;99.90;;;;;;5010474;28;20177;-67
2021/03/27 00:14:42;;;;;;;8.60;6.23;;;10.00;99.90;;;;;;5010542;28;20195;-68
2021/03/27 00:17:16;;;;;;;10.40;6.60;;;10.00;99.90;;;;;;5010405;28;20215;-68
2021/03/27 00:19:47;;;;;;;8.93;6.33;;;9.90;99.90;;;;;;5010258;28;20465;-68
2021/03/27 00:22:18;;;;;;;9.90;5.93;;;9.80;99.90;;;;;;5010237;28;20427;-67
2021/03/27 00:25:18;;;;;;;11.50;6.50;;;9.80;99.90;;;;;;5010402;28;20447;-68
2021/03/27 00:27:53;;;;;;;10.67;6.77;;;9.80;99.90;;;;;;4999882;28;20231;-68
2021/03/27 00:30:25;;;;;;;9.97;6.87;;;9.80;99.90;;;;;;5014073;28;20786;-68
2021/03/27 00:32:54;;;;;;;10.23;6.10;;;9.70;99.90;;;;;;5014199;28;20188;-69
2021/03/27 00:35:35;;;;;;;12.33;7.30;;;9.70;99.90;;;;;;5014233;28;20560;-67
2021/03/27 00:38:04;;;;;;;8.40;6.50;;;9.80;99.90;;;;;;5013987;28;20235;-69
2021/03/27 00:40:38;;;;;;;9.67;6.83;;;9.80;99.90;;;;;;5013875;28;20419;-68
2021/03/27 00:43:09;;;;;;;11.00;7.67;;;9.80;99.90;;;;;;5013775;28;20173;-68
2021/03/27 00:45:45;;;;;;;10.60;7.13;;;10.10;99.90;;;;;;5003390;28;20938;-67
2021/03/27 00:48:16;;;;;;;10.13;7.90;;;10.30;99.90;;;;;;4994453;28;20435;-68
2021/03/27 00:50:47;;;;;;;9.93;7.03;;;10.40;99.90;;;;;;4994362;28;20526;-67
2021/03/27 00:53:16;;;;;;;9.93;7.97;;;10.40;99.90;;;;;;4994143;28;21454;-68
2021/03/27 00:55:49;;;;;;;10.20;6.93;;;10.40;99.90;;;;;;4993945;28;20411;-68
2021/03/27 00:58:33;;;;;;;10.80;6.83;;;10.40;99.90;;;;;;4993837;28;20417;-67
2021/03/27 01:01:02;;;;;;;10.30;6.97;;;10.60;99.90;;;;;;4994146;28;20411;-67
2021/03/27 01:03:36;;;;;;;10.10;6.40;;;10.60;99.90;;;;;;4993673;28;20409;-68
2021/03/27 01:06:06;;;;;;;15.57;8.03;;;10.70;99.90;;;;;;4993896;28;20235;-69
2021/03/27 01:08:39;;;;;;;8.83;6.20;;;10.70;99.90;;;;;;4993561;28;20181;-69
2021/03/27 01:11:09;;;;;;;7.40;6.30;;;10.90;99.90;;;;;;5012314;28;20484;-69
2021/03/27 01:13:40;;;;;;;9.50;7.10;;;10.90;99.90;;;;;;4993657;28;20272;-68
2021/03/27 01:16:10;;;;;;;9.70;6.73;;;10.90;99.90;;;;;;4993686;28;20417;-67
2021/03/27 01:18:42;;;;;;;9.33;6.50;;;10.90;99.90;;;;;;4993404;28;20224;-70
2021/03/27 01:21:13;;;;;;;9.43;7.27;;;10.90;99.90;;;;;;4993630;28;20180;-67
2021/03/27 01:23:40;;;;;;;9.43;6.53;;;10.90;99.90;;;;;;4993361;28;20177;-67
2021/03/27 01:26:11;;;;;;;8.50;6.63;;;10.90;99.90;;;;;;4993534;28;20445;-68
2021/03/27 01:28:50;;;;;;;9.40;6.27;;;10.80;99.90;;;;;;4993416;28;20424;-67
2021/03/27 01:31:22;;;;;;;7.37;5.83;;;10.80;99.90;;;;;;4993499;28;20428;-68
2021/03/27 01:34:02;;;;;;;9.40;6.33;;;10.70;99.90;;;;;;4993275;28;20423;-69
2021/03/27 01:37:01;;;;;;;10.97;6.87;;;10.70;99.90;;;;;;4992922;28;20423;-67
2021/03/27 01:39:34;;;;;;;11.03;6.43;;;10.60;99.90;;;;;;4993104;28;20460;-68
2021/03/27 01:42:31;;;;;;;9.13;6.90;;;10.60;99.90;;;;;;4992953;28;20458;-69
2021/03/27 01:45:18;;;;;;;9.90;6.00;;;10.50;99.90;;;;;;5005153;28;20434;-69
2021/03/27 01:48:22;;;;;;;7.93;5.97;;;10.50;99.90;;;;;;5032440;28;20414;-68
2021/03/27 01:51:02;;;;;;;8.77;4.50;;;10.50;99.90;;;;;;4944368;28;20438;-67
2021/03/27 01:53:34;;;;;;;7.63;6.10;;;10.50;99.90;;;;;;5032328;28;20421;-69
2021/03/27 01:56:21;;;;;;;7.17;5.67;;;10.60;99.90;;;;;;5023851;28;20177;-68
2021/03/27 01:59:04;;;;;;;8.50;6.50;;;10.60;99.90;;;;;;5012274;28;20475;-67
2021/03/27 02:01:41;;;;;;;8.37;5.83;;;10.70;99.90;;;;;;5012408;28;20422;-67
2021/03/27 02:04:11;;;;;;;8.30;5.77;;;10.80;99.90;;;;;;5012172;28;20466;-68
2021/03/27 02:07:02;;;;;;;6.70;5.67;;;10.80;99.90;;;;;;5012386;28;20506;-68
2021/03/27 02:09:46;;;;;;;9.10;4.80;;;10.80;99.90;;;;;;5012215;28;20448;-70
2021/03/27 02:12:14;;;;;;;9.53;4.37;;;10.80;99.90;;;;;;5012256;28;20684;-70
2021/03/27 02:14:54;;;;;;;3.33;2.87;;;10.70;99.90;;;;;;5012284;28;20419;-69
2021/03/27 02:17:28;;;;;;;2.93;2.47;;;10.70;99.90;;;;;;5012233;28;20416;-68
2021/03/27 02:20:31;;;;;;;3.17;2.60;;;10.60;99.90;;;;;;5012146;28;20463;-68
2021/03/27 02:23:20;;;;;;;4.40;2.30;;;10.50;99.90;;;;;;5012146;28;20506;-67
2021/03/27 02:26:01;;;;;;;2.57;2.33;;;10.50;99.90;;;;;;5012029;28;20419;-67
2021/03/27 02:28:42;;;;;;;2.23;2.03;;;10.40;99.90;;;;;;5012124;28;20466;-68
2021/03/27 02:31:17;;;;;;;2.13;1.60;;;10.40;99.90;;;;;;5011928;28;20415;-67
2021/03/27 02:34:14;;;;;;;1.37;1.27;;;10.30;99.90;;;;;;5011944;28;20498;-68
2021/03/27 02:37:04;;;;;;;1.87;1.23;;;10.40;99.90;;;;;;4952689;28;20468;-67
2021/03/27 02:39:57;;;;;;;1.43;1.27;;;10.30;99.90;;;;;;5011638;28;20470;-68
2021/03/27 02:42:38;;;;;;;2.03;1.30;;;10.20;99.90;;;;;;5011864;28;20403;-68
2021/03/27 02:45:23;;;;;;;1.77;1.17;;;10.10;99.90;;;;;;5006685;28;20467;-68
2021/03/27 02:48:30;;;;;;;1.23;1.10;;;10.00;99.90;;;;;;5011137;28;20455;-68
2021/03/27 02:51:19;;;;;;;2.47;1.20;;;9.90;99.90;;;;;;4994012;28;20419;-67
2021/03/27 02:53:55;;;;;;;1.73;1.30;;;9.90;99.90;;;;;;5011549;28;20493;-68
2021/03/27 02:56:55;;;;;;;1.70;1.07;;;9.90;99.90;;;;;;5011368;28;20913;-69
2021/03/27 02:59:48;;;;;;;5.73;1.20;;;9.80;99.90;;;;;;5011274;28;20450;-68
2021/03/27 03:02:19;;;;;;;1.37;0.83;;;9.70;99.90;;;;;;5011123;28;20424;-68
2021/03/27 03:05:09;;;;;;;1.57;0.77;;;9.60;99.90;;;;;;5011276;28;20415;-68
2021/03/27 03:08:11;;;;;;;1.00;0.80;;;9.60;99.90;;;;;;5011377;28;20400;-67
2021/03/27 03:10:55;;;;;;;1.17;0.70;;;9.60;99.90;;;;;;5011109;28;20414;-66
2021/03/27 03:13:32;;;;;;;2.53;0.90;;;9.50;99.90;;;;;;5011239;28;20438;-67
2021/03/27 03:16:27;;;;;;;1.47;0.70;;;9.50;99.90;;;;;;5011132;28;20414;-67
2021/03/27 03:19:17;;;;;;;1.57;0.83;;;9.40;99.90;;;;;;5011044;28;20467;-67
2021/03/27 03:22:24;;;;;;;2.63;1.30;;;9.30;99.90;;;;;;5010901;28;20411;-70
2021/03/27 03:24:58;;;;;;;1.17;1.10;;;9.30;99.90;;;;;;4895861;29;20420;-68
2021/03/27 03:27:32;;;;;;;2.67;1.47;;;9.20;99.90;;;;;;4996027;28;20438;-68
2021/03/27 03:30:35;;;;;;;2.70;1.13;;;9.10;99.90;;;;;;5010783;28;20453;-67
2021/03/27 03:33:28;;;;;;;0.93;0.83;;;9.10;99.90;;;;;;5009552;28;20506;-68
2021/03/27 03:36:04;;;;;;;0.80;0.80;;;9.00;99.90;;;;;;4991215;28;20416;-67
2021/03/27 03:39:12;;;;;;;1.30;0.73;;;9.00;99.90;;;;;;4991303;28;20431;-68
2021/03/27 03:41:58;;;;;;;1.20;1.00;;;8.90;99.90;;;;;;4984714;28;20768;-68
2021/03/27 03:44:54;;;;;;;1.57;1.10;;;8.80;99.90;;;;;;4991996;28;20793;-67
2021/03/27 03:48:03;;;;;;;1.20;0.73;;;8.70;99.90;;;;;;4993288;28;20466;-68
2021/03/27 03:50:39;;;;;;;0.73;0.73;;;8.60;99.90;;;;;;4998935;28;20436;-69
2021/03/27 03:53:39;;;;;;;1.17;0.90;;;8.50;99.90;;;;;;5010743;28;20411;-68
2021/03/27 03:56:17;;;;;;;1.00;1.00;;;8.50;99.90;;;;;;5010503;28;20442;-69
2021/03/27 03:59:08;;;;;;;1.93;0.90;;;8.40;99.90;;;;;;5010508;28;20450;-68
2021/03/27 04:01:48;;;;;;;1.00;0.80;;;8.40;99.90;;;;;;4996516;28;20416;-67
2021/03/27 04:04:32;;;;;;;1.10;0.73;;;8.40;99.90;;;;;;5014657;28;20758;-68
2021/03/27 04:07:05;;;;;;;0.93;0.90;;;8.40;99.90;;;;;;5014726;28;20419;-68
2021/03/27 04:09:49;;;;;;;1.20;0.70;;;8.30;99.90;;;;;;5014622;28;20418;-68
2021/03/27 04:12:32;;;;;;;0.63;0.63;;;8.20;99.90;;;;;;5014442;28;20419;-67
2021/03/27 04:15:12;;;;;;;0.60;0.60;;;8.10;99.90;;;;;;5014325;28;20430;-68
2021/03/27 04:17:54;;;;;;;1.03;0.37;;;8.00;99.90;;;;;;5014495;28;20419;-69
2021/03/27 04:20:38;;;;;;;0.60;0.50;;;7.90;99.90;;;;;;5007163;28;20454;-68
2021/03/27 04:23:36;;;;;;;0.30;0.30;;;7.90;99.90;;;;;;5012978;28;20901;-67
2021/03/27 04:26:28;;;;;;;0.40;0.40;;;7.90;99.90;;;;;;4974580;28;20447;-68
2021/03/27 04:29:19;;;;;;;1.30;0.40;;;7.80;99.90;;;;;;5010063;28;20416;-68
2021/03/27 04:31:47;;;;;;;0.30;0.30;;;7.80;99.90;;;;;;5004888;28;20778;-68
2021/03/27 04:34:30;;;;;;;0.47;0.40;;;7.80;99.90;;;;;;5006595;28;20411;-68
2021/03/27 04:37:16;;;;;;;0.30;0.20;;;7.80;99.90;;;;;;5004852;28;20420;-69
2021/03/27 04:39:53;;;;;;;0.40;0.40;;;7.80;99.90;;;;;;4995251;28;20457;-68
2021/03/27 04:42:21;;;;;;;0.43;0.43;;;7.80;99.90;;;;;;5012595;28;20829;-69
2021/03/27 04:45:02;;;;;;;0.40;0.30;;;7.80;99.90;;;;;;5015128;28;20427;-67
2021/03/27 04:47:39;;;;;;;0.30;0.30;;;7.60;99.90;;;;;;5013941;28;20498;-66
2021/03/27 04:50:20;;;;;;;0.70;0.47;;;7.40;99.90;;;;;;5013872;28;20419;-68
2021/03/27 04:53:25;;;;;;;0.60;0.60;;;7.30;99.90;;;;;;5012537;28;20422;-69
2021/03/27 04:56:14;;;;;;;0.30;0.30;;;7.40;99.90;;;;;;5013751;28;20414;-69
2021/03/27 04:59:02;;;;;;;1.23;0.67;;;7.40;99.90;;;;;;5013510;28;20979;-68
2021/03/27 05:02:09;;;;;;;2.10;0.73;;;7.40;99.90;;;;;;5013570;28;20411;-67
2021/03/27 05:04:57;;;;;;;0.70;0.50;;;7.40;99.90;;;;;;5013571;28;20419;-68
2021/03/27 05:08:01;;;;;;;0.60;0.60;;;7.40;99.90;;;;;;5013551;28;20469;-69
2021/03/27 05:10:40;;;;;;;1.10;0.50;;;7.50;99.90;;;;;;5013335;28;20431;-66
2021/03/27 05:13:06;;;;;;;1.20;1.00;;;7.40;99.90;;;;;;5012730;28;20505;-68
2021/03/27 05:15:51;;;;;;;0.93;0.73;;;7.40;99.90;;;;;;5013243;28;21001;-68
2021/03/27 05:18:47;;;;;;;0.80;0.70;;;7.50;99.90;;;;;;5013390;28;20204;-68
2021/03/27 05:21:32;;;;;;;3.83;0.90;;;7.40;99.90;;;;;;5012265;28;20454;-67
2021/03/27 05:24:00;;;;;;;1.70;1.00;;;7.30;99.90;;;;;;5013085;28;20408;-67
2021/03/27 05:26:47;;;;;;;2.50;0.80;;;7.40;99.90;;;;;;5012956;28;20462;-67
2021/03/27 05:29:15;;;;;;;1.77;0.63;;;7.40;99.90;;;;;;5012945;28;20410;-67
2021/03/27 05:31:55;;;;;;;2.03;1.00;;;7.30;99.90;;;;;;5013062;28;20411;-68
2021/03/27 05:34:33;;;;;;;3.40;0.90;;;7.40;99.90;;;;;;5012878;28;20407;-68
2021/03/27 05:37:17;;;;;;;3.63;1.13;;;7.40;99.90;;;;;;5012877;28;20417;-70
2021/03/27 05:39:54;;;;;;;1.10;0.70;;;7.40;99.90;;;;;;5013015;28;20447;-70
2021/03/27 05:42:20;;;;;;;2.03;0.80;;;7.50;99.90;;;;;;5012692;28;20522;-68
2021/03/27 05:45:01;;;;;;;3.77;1.20;;;7.50;99.90;;;;;;5013826;28;20419;-68
2021/03/27 05:48:10;;;;;;;1.83;0.80;;;7.50;99.90;;;;;;5012527;28;20176;-68
2021/03/27 05:51:13;;;;;;;3.43;0.83;;;7.50;99.90;;;;;;5013036;28;20423;-68
2021/03/27 05:53:42;;;;;;;1.83;0.90;;;7.50;99.90;;;;;;5012936;28;20407;-68
2021/03/27 05:56:45;;;;;;;1.73;1.20;;;7.50;99.90;;;;;;5012622;28;20431;-68
2021/03/27 05:59:47;;;;;;;5.67;1.80;;;7.50;99.90;;;;;;5012693;28;20469;-67
2021/03/27 06:02:24;;;;;;;3.70;0.97;;;7.50;99.90;;;;;;5012530;28;20413;-66
2021/03/27 06:05:16;;;;;;;2.60;1.00;;;7.50;99.90;;;;;;5012395;28;20411;-68
2021/03/27 06:08:19;;;;;;;1.90;1.00;;;7.50;99.90;;;;;;5012406;28;20824;-68
2021/03/27 06:11:03;;;;;;;2.07;0.70;;;7.50;99.90;;;;;;5012334;28;21410;-70
2021/03/27 06:14:13;;;;;;;2.63;0.83;;;7.50;99.90;;;;;;5011767;28;20470;-69
2021/03/27 06:17:00;;;;;;;2.23;0.80;;;7.50;99.90;;;;;;4932786;29;20430;-67
2021/03/27 06:20:07;;;;;;;3.93;1.20;;;7.60;99.90;;;;;;5006760;28;20451;-68
2021/03/27 06:23:30;;;;;;;4.40;1.30;;;7.50;99.90;;;;;;5012005;28;20480;-69
2021/03/27 06:26:08;;;;;;;2.10;1.07;;;7.50;99.90;;;;;;4932233;29;20427;-68
2021/03/27 06:28:56;;;;;;;2.77;1.20;;;7.50;99.90;;;;;;4932584;29;20411;-67
2021/03/27 06:31:40;;;;;;;5.13;1.30;;;7.40;99.90;;;;;;4987587;28;20417;-68
2021/03/27 06:34:42;;;;;;;5.63;0.90;;;7.40;99.90;;;;;;5011759;28;20920;-67
2021/03/27 06:37:45;;;;;;;9.43;1.50;;;7.40;99.90;;;;;;5012511;28;20413;-67
2021/03/27 06:40:31;;;;;;;2.63;0.97;;;7.50;99.90;;;;;;5012461;28;20451;-67
2021/03/27 06:43:42;;;;;;;2.50;1.17;;;7.50;99.90;;;;;;4994768;28;20439;-66
2021/03/27 06:46:13;;;;;;;3.63;1.20;;;7.50;99.90;;;;;;5012320;28;20463;-68
2021/03/27 06:49:09;;;;;;;1.97;0.60;;;7.50;99.90;;;;;;5011208;28;20426;-67
2021/03/27 06:52:06;;;;;;;5.13;1.20;;;7.50;99.90;;;;;;5011931;28;20420;-68
2021/03/27 06:54:49;;;;;;;2.33;1.17;;;7.50;99.90;;;;;;5011093;28;20469;-67
2021/03/27 06:57:27;;;;;;;3.40;1.33;;;7.40;99.90;;;;;;5011264;28;20808;-67
2021/03/27 07:00:49;;;;;;;3.83;1.13;;;7.50;99.90;;;;;;5011869;28;20443;-69
2021/03/27 07:03:33;;;;;;;4.53;1.27;;;7.40;99.90;;;;;;5011775;28;20434;-67
2021/03/27 07:06:20;;;;;;;4.63;1.20;;;7.40;99.90;;;;;;5010573;28;20411;-67
2021/03/27 07:09:05;;;;;;;7.93;1.67;;;7.40;99.90;;;;;;5011673;28;20415;-67
2021/03/27 07:12:18;;;;;;;3.80;1.33;;;7.40;99.90;;;;;;5011441;28;20446;-68
2021/03/27 07:15:21;;;;;;;3.57;1.97;;;7.50;99.90;;;;;;5011712;28;20506;-67
2021/03/27 07:18:24;;;;;;;2.27;1.10;;;7.70;99.90;;;;;;5011743;28;20418;-68
2021/03/27 07:20:56;;;;;;;1.67;0.83;;;7.80;99.60;;;;;;5011368;28;20423;-69
2021/03/27 07:23:54;;;;;;;3.90;1.60;;;7.90;94.00;;;;;;5011421;28;20538;-67
2021/03/27 07:26:39;;;;;;;3.57;0.83;;;7.90;94.40;;;;;;5010921;28;20415;-68
2021/03/27 07:29:30;;;;;;;2.83;1.30;;;7.90;94.60;;;;;;5010921;28;20461;-67
2021/03/27 07:32:01;;;;;;;2.60;1.10;;;7.90;93.80;;;;;;5011352;28;20411;-67
2021/03/27 07:34:55;;;;;;;2.40;1.00;;;8.00;94.50;;;;;;5011062;28;20408;-70
2021/03/27 07:37:39;;;;;;;1.77;0.83;;;8.00;93.60;;;;;;5011072;28;20424;-67
2021/03/27 07:40:37;;;;;;;5.07;0.90;;;8.00;94.60;;;;;;5010900;28;20450;-67
2021/03/27 07:43:21;;;;;;;3.07;1.10;;;8.10;94.10;;;;;;5010202;28;20412;-68
2021/03/27 07:46:14;;;;;;;2.57;0.87;;;8.20;93.60;;;;;;5011654;28;20928;-69
2021/03/27 07:49:06;;;;;;;6.27;1.17;;;8.20;93.40;;;;;;5011068;28;20416;-67
2021/03/27 07:52:22;;;;;;;4.27;1.00;;;8.10;92.10;;;;;;5010742;28;20777;-68
2021/03/27 07:55:00;;;;;;;3.50;0.87;;;8.10;91.10;;;;;;4967600;28;20473;-68
2021/03/27 07:57:48;;;;;;;2.10;1.00;;;8.00;90.40;;;;;;5011034;28;20489;-69
2021/03/27 08:00:39;;;;;;;1.00;0.67;;;8.10;93.90;;;;;;5009745;28;20964;-67
2021/03/27 08:03:43;;;;;;;2.93;0.90;;;8.20;91.00;;;;;;4993421;28;20433;-68
2021/03/27 08:06:30;;;;;;;7.70;1.67;;;8.20;91.50;;;;;;4980713;28;20423;-68
2021/03/27 08:09:34;;;;;;;1.27;0.60;;;8.20;91.50;;;;;;5010968;28;20428;-68
2021/03/27 08:12:05;;;;;;;3.33;0.97;;;8.20;93.10;;;;;;5010920;28;20506;-68
2021/03/27 08:14:39;;;;;;;4.33;1.07;;;8.20;93.40;;;;;;5010837;28;20434;-68
2021/03/27 08:17:29;;;;;;;3.97;2.00;;;8.20;92.90;;;;;;5010610;28;20753;-68
2021/03/27 08:20:07;;;;;;;2.60;1.23;;;8.30;92.30;;;;;;5010614;28;20443;-67
2021/03/27 08:23:06;;;;;;;4.27;1.13;;;8.30;91.30;;;;;;5010172;28;20407;-69
2021/03/27 08:25:53;;;;;;;3.60;0.93;;;8.50;91.20;;;;;;5009658;28;20407;-68
2021/03/27 08:28:36;;;;;;;5.90;1.00;;;8.60;91.90;;;;;;5010191;28;20804;-68
2021/03/27 08:31:04;;;;;;;7.33;0.97;;;8.70;92.00;;;;;;5010099;28;20504;-70
2021/03/27 08:34:00;;;;;;;2.53;0.90;;;8.80;90.30;;;;;;5010082;28;20421;-68
2021/03/27 08:36:47;;;;;;;2.20;0.87;;;8.90;89.60;;;;;;5010019;28;20415;-69
2021/03/27 08:39:46;;;;;;;4.23;1.07;;;9.00;90.70;;;;;;5009927;28;20455;-69
2021/03/27 08:42:31;;;;;;;5.07;1.03;;;9.20;88.20;;;;;;5009916;28;20412;-68
2021/03/27 08:45:18;;;;;;;3.23;1.00;;;9.30;86.80;;;;;;5009728;28;20419;-68
2021/03/27 08:47:54;;;;;;;7.00;1.40;;;9.40;86.60;;;;;;4993972;28;20933;-67
2021/03/27 08:51:00;;;;;;;5.93;0.90;;;9.30;85.90;;;;;;5013648;28;20453;-67
2021/03/27 08:53:53;;;;;;;3.90;1.00;;;9.20;85.90;;;;;;5013670;28;20451;-70
2021/03/27 08:56:22;;;;;;;6.20;1.00;;;9.20;82.50;;;;;;5013102;28;20419;-68
2021/03/27 08:58:58;;;;;;;5.60;0.70;;;9.10;84.30;;;;;;5013231;28;20486;-68
2021/03/27 09:01:33;;;;;;;6.03;1.30;;;9.10;80.90;;;;;;5013379;28;20936;-67
2021/03/27 09:04:16;;;;;;;5.50;1.17;;;9.10;82.70;;;;;;5013402;28;20589;-67
2021/03/27 09:07:00;;;;;;;5.33;0.97;;;9.30;83.60;;;;;;5013158;28;20485;-67
2021/03/27 09:09:51;;;;;;;5.90;1.07;;;9.50;82.10;;;;;;5013390;28;20510;-68
2021/03/27 09:12:28;;;;;;;3.30;1.13;;;9.50;82.00;;;;;;5013031;28;20423;-67
2021/03/27 09:15:16;;;;;;;5.37;0.90;;;9.60;81.60;;;;;;4995170;28;20422;-69
2021/03/27 09:18:06;;;;;;;1.80;0.70;;;9.80;84.90;;;;;;5012569;28;20429;-65
2021/03/27 09:20:32;;;;;;;1.97;0.50;;;9.90;79.90;;;;;;5012653;28;20968;-67
2021/03/27 09:23:12;;;;;;;3.43;0.93;;;9.90;79.60;;;;;;5012806;28;20500;-69
2021/03/27 09:26:08;;;;;;;3.73;0.90;;;9.90;79.50;;;;;;5012857;28;20184;-67
2021/03/27 09:28:40;;;;;;;3.10;0.97;;;9.80;77.90;;;;;;5013333;28;20786;-67
2021/03/27 09:31:24;;;;;;;1.90;1.00;;;9.80;75.80;;;;;;5012750;28;20414;-67
2021/03/27 09:33:57;;;;;;;6.90;1.10;;;9.80;76.00;;;;;;5013215;28;20430;-68
2021/03/27 09:36:47;;;;;;;4.27;0.67;;;10.10;78.50;;;;;;5012965;28;20412;-69
2021/03/27 09:39:36;;;;;;;5.27;1.20;;;10.30;76.90;;;;;;5012246;28;20540;-69
2021/03/27 09:42:13;;;;;;;3.27;1.10;;;10.30;75.80;;;;;;4994861;28;20412;-68
2021/03/27 09:45:02;;;;;;;2.53;1.13;;;10.30;72.60;;;;;;5008235;28;20411;-66
2021/03/27 09:47:47;;;;;;;4.73;1.63;;;10.10;70.30;;;;;;5004852;28;20458;-66
2021/03/27 09:50:34;;;;;;;5.00;1.10;;;9.80;74.30;;;;;;5012179;28;20438;-67
2021/03/27 09:53:04;;;;;;;8.20;1.20;;;9.80;74.90;;;;;;5011527;28;20423;-66
2021/03/27 09:55:59;;;;;;;3.13;1.00;;;9.80;72.00;;;;;;5012389;28;20419;-68
2021/03/27 09:58:46;;;;;;;3.83;0.90;;;10.00;72.30;;;;;;5011958;28;20466;-69
2021/03/27 10:01:32;;;;;;;5.83;1.10;;;10.00;69.70;;;;;;5011909;28;20419;-67
2021/03/27 10:04:16;;;;;;;4.63;1.37;;;10.10;70.30;;;;;;5012666;28;20776;-67
2021/03/27 10:06:45;;;;;;;2.23;0.97;;;10.30;68.70;;;;;;5012413;28;20415;-66
2021/03/27 10:09:29;;;;;;;5.00;0.90;;;10.20;67.30;;;;;;5012388;28;20408;-68
2021/03/27 10:12:05;;;;;;;2.73;0.50;;;10.20;67.60;;;;;;5012503;28;20411;-67
2021/03/27 10:14:37;;;;;;;5.53;0.93;;;10.00;65.00;;;;;;5012047;28;20494;-67
2021/03/27 10:17:26;;;;;;;5.27;0.83;;;9.90;68.60;;;;;;5012226;28;20415;-67
2021/03/27 10:20:15;;;;;;;10.13;1.23;;;10.00;69.30;;;;;;5012415;28;20564;-68
2021/03/27 10:22:50;;;;;;;4.03;0.97;;;10.10;69.90;;;;;;5012093;28;20407;-68
2021/03/27 10:25:57;;;;;;;4.07;1.23;;;10.30;69.60;;;;;;5012024;28;20537;-66
2021/03/27 10:28:28;;;;;;;4.43;1.00;;;10.40;68.90;;;;;;5000306;28;20498;-68
2021/03/27 10:30:59;;;;;;;3.33;0.93;;;10.50;66.90;;;;;;5012150;28;20407;-66
2021/03/27 10:33:46;;;;;;;5.33;1.53;;;10.70;68.30;;;;;;5011914;28;20455;-68
2021/03/27 10:36:54;;;;;;;5.83;1.10;;;10.80;66.20;;;;;;5010963;28;20184;-67
2021/03/27 10:39:57;;;;;;;7.60;1.63;;;10.80;66.10;;;;;;5011477;28;20521;-68
2021/03/27 10:42:42;;;;;;;8.33;1.17;;;10.80;62.80;;;;;;5011598;28;20550;-68
2021/03/27 10:45:22;;;;;;;4.03;0.70;;;10.90;64.10;;;;;;5011079;28;20179;-68
2021/03/27 10:48:03;;;;;;;3.33;1.00;;;10.90;62.80;;;;;;4989939;28;20211;-67
2021/03/27 10:50:49;;;;;;;3.00;0.97;;;11.00;63.90;;;;;;4990584;28;20243;-69
2021/03/27 10:53:30;;;;;;;4.20;1.00;;;11.10;63.30;;;;;;4991945;28;20177;-68
2021/03/27 10:56:27;;;;;;;4.70;0.83;;;11.10;64.80;;;;;;4991819;28;20185;-69
2021/03/27 10:59:02;;;;;;;5.53;0.90;;;11.10;64.00;;;;;;5008698;28;20214;-68
2021/03/27 11:02:10;;;;;;;4.40;1.40;;;11.10;63.70;;;;;;5011254;28;20237;-69
2021/03/27 11:05:13;;;;;;;4.27;1.10;;;11.10;65.40;;;;;;5011159;28;20176;-68
2021/03/27 11:07:48;;;;;;;4.23;1.30;;;11.10;63.20;;;;;;5011119;28;20527;-67
2021/03/27 11:10:47;;;;;;;4.70;0.90;;;10.90;62.80;;;;;;5010190;28;20603;-69
2021/03/27 11:13:59;;;;;;;3.13;1.10;;;10.90;64.40;;;;;;5010717;28;20176;-69
2021/03/27 11:16:41;;;;;;;9.13;1.93;;;10.80;66.10;;;;;;5010867;28;20410;-69
2021/03/27 11:19:51;;;;;;;5.07;1.60;;;10.80;63.00;;;;;;5011014;28;20195;-68
2021/03/27 11:22:40;;;;;;;3.97;0.90;;;10.60;66.40;;;;;;4993190;28;20249;-68
2021/03/27 11:25:40;;;;;;;4.03;1.07;;;10.40;73.40;;;;;;4997031;28;20194;-67
2021/03/27 11:28:22;;;;;;;5.23;1.00;;;10.00;88.00;;;;;;5010829;28;20426;-70
2021/03/27 11:31:12;;;;;;;5.60;1.00;;;9.60;94.40;;;;;;5010963;28;20442;-69
2021/03/27 11:34:20;;;;;;;6.37;1.00;;;9.40;94.90;;;;;;5010558;28;20418;-68
2021/03/27 11:36:53;;;;;;;6.43;0.87;;;9.40;99.90;;;;;;5010726;28;20502;-68
2021/03/27 11:39:45;;;;;;;3.57;1.13;;;9.40;98.10;;;;;;5010431;28;20453;-67
2021/03/27 11:42:25;;;;;;;5.53;1.87;;;9.30;97.00;;;;;;5001546;28;20792;-68
2021/03/27 11:45:25;;;;;;;4.00;1.70;;;9.20;95.50;;;;;;5010567;28;21164;-66
2021/03/27 11:48:20;;;;;;;9.47;2.37;;;9.20;99.50;;;;;;5010555;28;20434;-67
2021/03/27 11:51:01;;;;;;;8.10;1.90;;;8.70;99.90;;;;;;5010415;28;20415;-67
2021/03/27 11:53:33;;;;;;;8.40;2.57;;;8.20;99.90;;;;;;5010504;28;20733;-67
2021/03/27 11:56:37;;;;;;;5.23;1.53;;;7.90;99.90;;;;;;5010449;28;20416;-66
2021/03/27 12:02:46;;;;;;;4.27;1.53;;;7.50;99.90;;;;;;4990134;28;20804;-68
2021/03/27 12:05:36;;;;;;;6.83;1.27;;;7.60;99.90;;;;;;4993728;28;21357;-65
2021/03/27 12:08:14;;;;;;;5.10;1.27;;;7.60;99.90;;;;;;5010528;28;20446;-71
2021/03/27 12:10:55;;;;;;;6.20;1.60;;;7.80;99.90;;;;;;5010237;28;20415;-72
2021/03/27 12:13:57;;;;;;;9.73;1.70;;;8.20;99.90;;;;;;5010450;28;20430;-69
2021/03/27 12:16:32;;;;;;;7.87;1.40;;;8.70;99.90;;;;;;4977045;28;20458;-70
2021/03/27 12:19:13;;;;;;;4.80;1.33;;;9.10;99.90;;;;;;5010213;28;20454;-67
2021/03/27 12:22:02;;;;;;;8.77;1.63;;;9.60;99.90;;;;;;5012012;28;20767;-68
2021/03/27 12:24:30;;;;;;;7.03;1.60;;;10.30;99.90;;;;;;5014338;28;20423;-68
2021/03/27 12:27:05;;;;;;;5.87;1.50;;;10.70;99.90;;;;;;5013872;28;20514;-70
2021/03/27 12:29:41;;;;;;;6.37;1.40;;;10.70;97.80;;;;;;5014112;28;20426;-67
2021/03/27 12:32:21;;;;;;;5.27;1.60;;;10.80;94.50;;;;;;5014010;28;20187;-68
2021/03/27 12:35:13;;;;;;;6.23;1.30;;;10.80;93.70;;;;;;5014189;28;20271;-67
2021/03/27 12:37:43;;;;;;;7.10;1.10;;;10.60;92.70;;;;;;4986950;28;20267;-67
2021/03/27 12:40:27;;;;;;;8.60;1.80;;;10.60;94.80;;;;;;5013575;28;20283;-66
2021/03/27 12:43:11;;;;;;;5.63;1.30;;;11.10;92.40;;;;;;5013713;28;20180;-68
2021/03/27 12:45:41;;;;;;;3.77;1.00;;;11.80;94.00;;;;;;5015131;28;20168;-69
2021/03/27 12:48:13;;;;;;;2.40;0.70;;;12.20;86.40;;;;;;5013467;28;20187;-67
2021/03/27 12:50:38;;;;;;;7.83;2.30;;;12.10;76.60;;;;;;4996087;28;20172;-68
2021/03/27 12:53:11;;;;;;;8.07;1.37;;;11.80;86.50;;;;;;5013562;28;20186;-70
2021/03/27 12:55:46;;;;;;;6.00;1.47;;;11.60;87.10;;;;;;5013433;28;20180;-70
2021/03/27 12:58:40;;;;;;;6.17;1.33;;;11.40;77.50;;;;;;5013245;28;20184;-67
2021/03/27 13:01:24;;;;;;;6.73;1.40;;;11.80;77.60;;;;;;4995772;28;20180;-66
2021/03/27 13:04:51;;;;;;;3.97;0.87;;;11.80;71.80;;;;;;5013514;28;20177;-68
2021/03/27 13:07:24;;;;;;;5.43;1.30;;;11.50;73.90;;;;;;4952249;29;20178;-67
2021/03/27 13:09:58;;;;;;;2.43;0.87;;;11.40;74.50;;;;;;4985984;28;20296;-67
2021/03/27 13:12:56;;;;;;;2.83;0.70;;;12.10;69.40;;;;;;5012950;28;20180;-69
2021/03/27 13:15:56;;;;;;;2.00;1.10;;;12.50;62.80;;;;;;4984876;28;20193;-66
2021/03/27 13:18:25;;;;;;;3.50;1.30;;;12.60;60.20;;;;;;5013088;28;20192;-68
2021/03/27 13:21:14;;;;;;;3.60;1.07;;;12.70;62.40;;;;;;5012764;28;20199;-67
2021/03/27 13:23:50;;;;;;;4.23;1.17;;;12.40;63.50;;;;;;5011578;28;20696;-68
2021/03/27 13:26:34;;;;;;;4.77;1.00;;;12.10;62.70;;;;;;5012902;28;20518;-68
2021/03/27 13:29:32;;;;;;;3.47;1.00;;;12.20;61.20;;;;;;5012866;28;20180;-67
2021/03/27 13:32:15;;;;;;;3.27;0.83;;;12.30;59.70;;;;;;5013083;28;21519;-66
2021/03/27 13:35:00;;;;;;;3.97;1.17;;;12.70;58.40;;;;;;5012241;28;20188;-68
2021/03/27 13:37:45;;;;;;;5.20;1.20;;;12.40;56.80;;;;;;5012397;28;20234;-68
2021/03/27 13:40:23;;;;;;;2.10;0.80;;;11.90;59.20;;;;;;5012401;28;20262;-67
2021/03/27 13:43:12;;;;;;;3.87;1.10;;;11.70;61.90;;;;;;5012041;28;20179;-67
2021/03/27 13:45:40;;;;;;;5.27;1.20;;;12.20;64.60;;;;;;5012872;28;20183;-67
2021/03/27 13:48:27;;;;;;;4.23;0.87;;;12.70;61.60;;;;;;4993296;28;20183;-66
2021/03/27 13:51:11;;;;;;;4.70;1.10;;;13.00;58.40;;;;;;4992920;28;20192;-67
2021/03/27 13:54:11;;;;;;;5.10;1.10;;;13.20;59.80;;;;;;4993053;28;20211;-67
2021/03/27 13:57:15;;;;;;;4.10;1.10;;;13.00;58.50;;;;;;4993089;28;20177;-66
2021/03/27 14:00:18;;;;;;;6.03;1.03;;;12.50;58.10;;;;;;4992603;28;20200;-66
2021/03/27 14:03:09;;;;;;;3.53;1.13;;;12.20;59.00;;;;;;5003399;28;20172;-66
2021/03/27 14:05:44;;;;;;;4.43;0.93;;;12.20;61.20;;;;;;5011453;28;20267;-67
2021/03/27 14:08:32;;;;;;;3.90;1.20;;;12.20;59.50;;;;;;5009975;28;20179;-66
2021/03/27 14:11:22;;;;;;;6.77;1.27;;;11.90;58.80;;;;;;5012236;28;20538;-66
2021/03/27 14:14:07;;;;;;;8.07;1.37;;;11.70;59.60;;;;;;5012546;28;20259;-68
2021/03/27 14:16:43;;;;;;;10.07;1.73;;;11.60;60.50;;;;;;5011859;28;20172;-68
2021/03/27 14:19:20;;;;;;;7.83;1.50;;;11.70;58.80;;;;;;4997717;28;20196;-66
2021/03/27 14:22:07;;;;;;;5.40;1.50;;;11.70;59.10;;;;;;5010064;28;20187;-69
2021/03/27 14:24:39;;;;;;;4.80;1.53;;;11.50;57.80;;;;;;5012065;28;20550;-71
2021/03/27 14:27:13;;;;;;;3.47;1.00;;;11.50;57.30;;;;;;5012201;28;20169;-69
2021/03/27 14:29:44;;;;;;;4.00;1.60;;;11.40;56.60;;;;;;5012143;28;20177;-67